sensor_id;sensor_type;location;lat;lon;timestamp;P1;durP1;ratioP1;P2;durP2;ratioP2
68377;SDS011;55322;48.146;11.516;2023-07-28T00:01:29;6.63;;;2.53;;
68377;SDS011;55322;48.146;11.516;2023-07-28T00:03:54;7.28;;;2.65;;
68377;SDS011;55322;48.146;11.516;2023-07-28T00:06:20;6.40;;;2.60;;
68377;SDS011;55322;48.146;11.516;2023-07-28T00:08:45;6.83;;;2.67;;
68377;SDS011;55322;48.146;11.516;2023-07-28T00:11:11;6.83;;;2.57;;
68377;SDS011;55322;48.146;11.516;2023-07-28T00:13:38;6.53;;;2.40;;
68377;SDS011;55322;48.146;11.516;2023-07-28T00:16:04;6.75;;;2.80;;
68377;SDS011;55322;48.146;11.516;2023-07-28T00:18:30;6.93;;;2.70;;
68377;SDS011;55322;48.146;11.516;2023-07-28T00:20:55;7.17;;;2.60;;
68377;SDS011;55322;48.146;11.516;2023-07-28T00:23:21;8.60;;;2.83;;
68377;SDS011;55322;48.146;11.516;2023-07-28T00:25:46;7.50;;;3.00;;
68377;SDS011;55322;48.146;11.516;2023-07-28T00:28:11;7.37;;;2.70;;
68377;SDS011;55322;48.146;11.516;2023-07-28T00:30:37;6.43;;;2.60;;
68377;SDS011;55322;48.146;11.516;2023-07-28T00:33:03;6.63;;;2.65;;
68377;SDS011;55322;48.146;11.516;2023-07-28T00:35:28;7.53;;;3.00;;
68377;SDS011;55322;48.146;11.516;2023-07-28T00:37:53;6.57;;;2.53;;
68377;SDS011;55322;48.146;11.516;2023-07-28T00:40:19;8.47;;;2.57;;
68377;SDS011;55322;48.146;11.516;2023-07-28T00:42:44;7.43;;;2.83;;
68377;SDS011;55322;48.146;11.516;2023-07-28T00:45:10;7.15;;;2.60;;
68377;SDS011;55322;48.146;11.516;2023-07-28T00:47:35;5.87;;;2.27;;
68377;SDS011;55322;48.146;11.516;2023-07-28T00:50:02;8.93;;;2.70;;
68377;SDS011;55322;48.146;11.516;2023-07-28T00:52:28;6.53;;;2.28;;
68377;SDS011;55322;48.146;11.516;2023-07-28T00:54:53;6.77;;;2.27;;
68377;SDS011;55322;48.146;11.516;2023-07-28T00:57:18;7.10;;;2.20;;
68377;SDS011;55322;48.146;11.516;2023-07-28T00:59:44;6.35;;;2.53;;
68377;SDS011;55322;48.146;11.516;2023-07-28T01:02:10;6.10;;;2.10;;
68377;SDS011;55322;48.146;11.516;2023-07-28T01:04:36;7.00;;;2.45;;
68377;SDS011;55322;48.146;11.516;2023-07-28T01:07:15;6.67;;;2.53;;
68377;SDS011;55322;48.146;11.516;2023-07-28T01:12:20;8.45;;;2.00;;
68377;SDS011;55322;48.146;11.516;2023-07-28T01:14:45;5.57;;;1.97;;
68377;SDS011;55322;48.146;11.516;2023-07-28T01:17:11;6.13;;;2.17;;
68377;SDS011;55322;48.146;11.516;2023-07-28T01:19:36;6.23;;;1.90;;
68377;SDS011;55322;48.146;11.516;2023-07-28T01:22:16;5.70;;;2.10;;
68377;SDS011;55322;48.146;11.516;2023-07-28T01:25:06;5.85;;;2.10;;
68377;SDS011;55322;48.146;11.516;2023-07-28T01:27:42;6.47;;;2.60;;
68377;SDS011;55322;48.146;11.516;2023-07-28T01:30:11;5.85;;;2.10;;
68377;SDS011;55322;48.146;11.516;2023-07-28T01:32:36;5.65;;;2.00;;
68377;SDS011;55322;48.146;11.516;2023-07-28T01:35:02;5.37;;;2.10;;
68377;SDS011;55322;48.146;11.516;2023-07-28T01:37:28;6.18;;;2.25;;
68377;SDS011;55322;48.146;11.516;2023-07-28T01:39:54;5.80;;;1.87;;
68377;SDS011;55322;48.146;11.516;2023-07-28T01:42:22;6.78;;;2.30;;
68377;SDS011;55322;48.146;11.516;2023-07-28T01:44:47;5.30;;;1.90;;
68377;SDS011;55322;48.146;11.516;2023-07-28T01:47:12;6.43;;;2.13;;
68377;SDS011;55322;48.146;11.516;2023-07-28T01:49:38;5.63;;;1.90;;
68377;SDS011;55322;48.146;11.516;2023-07-28T01:52:03;5.67;;;1.97;;
68377;SDS011;55322;48.146;11.516;2023-07-28T01:54:29;5.20;;;1.55;;
68377;SDS011;55322;48.146;11.516;2023-07-28T01:56:54;6.70;;;1.90;;
68377;SDS011;55322;48.146;11.516;2023-07-28T01:59:20;6.40;;;1.85;;
68377;SDS011;55322;48.146;11.516;2023-07-28T02:01:46;5.73;;;1.53;;
68377;SDS011;55322;48.146;11.516;2023-07-28T02:04:12;6.60;;;1.95;;
68377;SDS011;55322;48.146;11.516;2023-07-28T02:06:37;6.50;;;1.87;;
68377;SDS011;55322;48.146;11.516;2023-07-28T02:09:03;5.47;;;1.60;;
68377;SDS011;55322;48.146;11.516;2023-07-28T02:11:28;5.50;;;1.60;;
68377;SDS011;55322;48.146;11.516;2023-07-28T02:13:53;5.40;;;1.58;;
68377;SDS011;55322;48.146;11.516;2023-07-28T02:16:19;5.37;;;1.73;;
68377;SDS011;55322;48.146;11.516;2023-07-28T02:18:44;5.80;;;1.83;;
68377;SDS011;55322;48.146;11.516;2023-07-28T02:21:09;5.43;;;1.90;;
68377;SDS011;55322;48.146;11.516;2023-07-28T02:23:35;6.03;;;1.77;;
68377;SDS011;55322;48.146;11.516;2023-07-28T02:26:00;5.10;;;1.77;;
68377;SDS011;55322;48.146;11.516;2023-07-28T02:28:26;5.83;;;1.90;;
68377;SDS011;55322;48.146;11.516;2023-07-28T02:30:51;7.05;;;1.83;;
68377;SDS011;55322;48.146;11.516;2023-07-28T02:33:17;5.07;;;1.60;;
68377;SDS011;55322;48.146;11.516;2023-07-28T02:35:42;5.60;;;1.70;;
68377;SDS011;55322;48.146;11.516;2023-07-28T02:38:07;5.40;;;1.58;;
68377;SDS011;55322;48.146;11.516;2023-07-28T02:40:33;7.00;;;1.70;;
68377;SDS011;55322;48.146;11.516;2023-07-28T02:42:59;5.37;;;1.70;;
68377;SDS011;55322;48.146;11.516;2023-07-28T02:45:24;5.32;;;1.83;;
68377;SDS011;55322;48.146;11.516;2023-07-28T02:47:50;5.43;;;1.37;;
68377;SDS011;55322;48.146;11.516;2023-07-28T02:50:15;5.50;;;1.65;;
68377;SDS011;55322;48.146;11.516;2023-07-28T02:52:41;5.80;;;1.90;;
68377;SDS011;55322;48.146;11.516;2023-07-28T02:55:06;5.30;;;1.80;;
68377;SDS011;55322;48.146;11.516;2023-07-28T02:57:32;5.90;;;1.80;;
68377;SDS011;55322;48.146;11.516;2023-07-28T02:59:58;5.70;;;1.50;;
68377;SDS011;55322;48.146;11.516;2023-07-28T03:02:23;6.07;;;1.75;;
68377;SDS011;55322;48.146;11.516;2023-07-28T03:04:49;5.27;;;1.87;;
68377;SDS011;55322;48.146;11.516;2023-07-28T03:07:14;6.80;;;1.90;;
68377;SDS011;55322;48.146;11.516;2023-07-28T03:09:39;5.00;;;1.60;;
68377;SDS011;55322;48.146;11.516;2023-07-28T03:12:05;6.33;;;1.73;;
68377;SDS011;55322;48.146;11.516;2023-07-28T03:14:31;5.72;;;1.60;;
68377;SDS011;55322;48.146;11.516;2023-07-28T03:16:57;7.10;;;1.73;;
68377;SDS011;55322;48.146;11.516;2023-07-28T03:19:22;6.00;;;1.70;;
68377;SDS011;55322;48.146;11.516;2023-07-28T03:21:47;6.27;;;1.77;;
68377;SDS011;55322;48.146;11.516;2023-07-28T03:24:13;7.10;;;1.90;;
68377;SDS011;55322;48.146;11.516;2023-07-28T03:26:38;6.03;;;1.70;;
68377;SDS011;55322;48.146;11.516;2023-07-28T03:29:04;5.77;;;1.80;;
68377;SDS011;55322;48.146;11.516;2023-07-28T03:31:29;6.67;;;1.80;;
68377;SDS011;55322;48.146;11.516;2023-07-28T03:33:54;5.33;;;1.60;;
68377;SDS011;55322;48.146;11.516;2023-07-28T03:36:20;5.40;;;1.63;;
68377;SDS011;55322;48.146;11.516;2023-07-28T03:38:45;6.55;;;1.60;;
68377;SDS011;55322;48.146;11.516;2023-07-28T03:41:11;5.47;;;1.53;;
68377;SDS011;55322;48.146;11.516;2023-07-28T03:43:37;5.93;;;1.88;;
68377;SDS011;55322;48.146;11.516;2023-07-28T03:46:02;5.10;;;1.70;;
68377;SDS011;55322;48.146;11.516;2023-07-28T03:48:28;8.50;;;1.90;;
68377;SDS011;55322;48.146;11.516;2023-07-28T03:50:53;6.40;;;1.90;;
68377;SDS011;55322;48.146;11.516;2023-07-28T03:53:18;5.53;;;1.50;;
68377;SDS011;55322;48.146;11.516;2023-07-28T03:55:44;5.18;;;1.50;;
68377;SDS011;55322;48.146;11.516;2023-07-28T03:58:09;6.53;;;1.50;;
68377;SDS011;55322;48.146;11.516;2023-07-28T04:00:34;5.43;;;1.40;;
68377;SDS011;55322;48.146;11.516;2023-07-28T04:03:00;5.87;;;1.87;;
68377;SDS011;55322;48.146;11.516;2023-07-28T04:05:25;7.43;;;1.73;;
68377;SDS011;55322;48.146;11.516;2023-07-28T04:07:50;5.43;;;1.67;;
68377;SDS011;55322;48.146;11.516;2023-07-28T04:10:16;6.43;;;1.70;;
68377;SDS011;55322;48.146;11.516;2023-07-28T04:12:41;5.30;;;1.53;;
68377;SDS011;55322;48.146;11.516;2023-07-28T04:15:06;5.47;;;1.60;;
68377;SDS011;55322;48.146;11.516;2023-07-28T04:17:32;5.57;;;1.60;;
68377;SDS011;55322;48.146;11.516;2023-07-28T04:19:58;5.22;;;1.42;;
68377;SDS011;55322;48.146;11.516;2023-07-28T04:22:23;5.00;;;1.50;;
68377;SDS011;55322;48.146;11.516;2023-07-28T04:24:48;5.57;;;1.67;;
68377;SDS011;55322;48.146;11.516;2023-07-28T04:27:14;5.30;;;1.73;;
68377;SDS011;55322;48.146;11.516;2023-07-28T04:29:39;6.00;;;1.60;;
68377;SDS011;55322;48.146;11.516;2023-07-28T04:32:05;5.60;;;1.67;;
68377;SDS011;55322;48.146;11.516;2023-07-28T04:34:32;5.73;;;1.67;;
68377;SDS011;55322;48.146;11.516;2023-07-28T04:36:58;4.90;;;1.63;;
68377;SDS011;55322;48.146;11.516;2023-07-28T04:39:24;7.17;;;2.10;;
68377;SDS011;55322;48.146;11.516;2023-07-28T04:41:49;5.37;;;1.67;;
68377;SDS011;55322;48.146;11.516;2023-07-28T04:44:14;5.20;;;1.50;;
68377;SDS011;55322;48.146;11.516;2023-07-28T04:46:40;5.60;;;1.67;;
68377;SDS011;55322;48.146;11.516;2023-07-28T04:49:05;5.70;;;1.80;;
68377;SDS011;55322;48.146;11.516;2023-07-28T04:51:30;6.63;;;1.67;;
68377;SDS011;55322;48.146;11.516;2023-07-28T04:53:55;5.43;;;1.70;;
68377;SDS011;55322;48.146;11.516;2023-07-28T04:56:21;6.90;;;1.63;;
68377;SDS011;55322;48.146;11.516;2023-07-28T04:58:46;5.73;;;1.73;;
68377;SDS011;55322;48.146;11.516;2023-07-28T05:01:11;5.37;;;1.50;;
68377;SDS011;55322;48.146;11.516;2023-07-28T05:03:38;5.38;;;1.83;;
68377;SDS011;55322;48.146;11.516;2023-07-28T05:06:03;6.27;;;1.77;;
68377;SDS011;55322;48.146;11.516;2023-07-28T05:08:29;5.95;;;2.03;;
68377;SDS011;55322;48.146;11.516;2023-07-28T05:10:55;5.50;;;1.70;;
68377;SDS011;55322;48.146;11.516;2023-07-28T05:13:21;6.63;;;1.80;;
68377;SDS011;55322;48.146;11.516;2023-07-28T05:15:46;5.67;;;1.87;;
68377;SDS011;55322;48.146;11.516;2023-07-28T05:18:11;5.80;;;1.80;;
68377;SDS011;55322;48.146;11.516;2023-07-28T05:20:37;5.93;;;1.93;;
68377;SDS011;55322;48.146;11.516;2023-07-28T05:23:02;6.37;;;1.90;;
68377;SDS011;55322;48.146;11.516;2023-07-28T05:25:27;6.77;;;2.00;;
68377;SDS011;55322;48.146;11.516;2023-07-28T05:27:53;5.63;;;1.58;;
68377;SDS011;55322;48.146;11.516;2023-07-28T05:30:18;6.03;;;1.67;;
68377;SDS011;55322;48.146;11.516;2023-07-28T05:32:43;5.60;;;1.57;;
68377;SDS011;55322;48.146;11.516;2023-07-28T05:35:09;6.53;;;2.20;;
68377;SDS011;55322;48.146;11.516;2023-07-28T05:37:34;6.10;;;2.10;;
68377;SDS011;55322;48.146;11.516;2023-07-28T05:39:59;7.83;;;2.10;;
68377;SDS011;55322;48.146;11.516;2023-07-28T05:42:25;5.60;;;1.80;;
68377;SDS011;55322;48.146;11.516;2023-07-28T05:44:51;5.95;;;1.83;;
68377;SDS011;55322;48.146;11.516;2023-07-28T05:47:18;6.68;;;2.10;;
68377;SDS011;55322;48.146;11.516;2023-07-28T05:49:43;7.70;;;2.20;;
68377;SDS011;55322;48.146;11.516;2023-07-28T05:52:08;5.93;;;1.93;;
68377;SDS011;55322;48.146;11.516;2023-07-28T05:54:33;6.50;;;2.10;;
68377;SDS011;55322;48.146;11.516;2023-07-28T05:56:59;7.23;;;2.07;;
68377;SDS011;55322;48.146;11.516;2023-07-28T05:59:24;6.43;;;2.03;;
68377;SDS011;55322;48.146;11.516;2023-07-28T06:01:49;8.65;;;2.00;;
68377;SDS011;55322;48.146;11.516;2023-07-28T06:04:15;6.53;;;2.00;;
68377;SDS011;55322;48.146;11.516;2023-07-28T06:06:40;5.63;;;1.90;;
68377;SDS011;55322;48.146;11.516;2023-07-28T06:09:06;6.57;;;2.13;;
68377;SDS011;55322;48.146;11.516;2023-07-28T06:11:31;7.43;;;2.10;;
68377;SDS011;55322;48.146;11.516;2023-07-28T06:13:56;6.23;;;1.90;;
68377;SDS011;55322;48.146;11.516;2023-07-28T06:16:23;5.65;;;1.88;;
68377;SDS011;55322;48.146;11.516;2023-07-28T06:18:49;5.70;;;1.88;;
68377;SDS011;55322;48.146;11.516;2023-07-28T06:21:14;5.93;;;1.83;;
68377;SDS011;55322;48.146;11.516;2023-07-28T06:23:39;6.00;;;1.80;;
68377;SDS011;55322;48.146;11.516;2023-07-28T06:26:05;5.63;;;1.90;;
68377;SDS011;55322;48.146;11.516;2023-07-28T06:28:30;6.73;;;1.87;;
68377;SDS011;55322;48.146;11.516;2023-07-28T06:30:56;8.68;;;2.03;;
68377;SDS011;55322;48.146;11.516;2023-07-28T06:33:22;5.60;;;1.80;;
68377;SDS011;55322;48.146;11.516;2023-07-28T06:35:47;5.45;;;1.85;;
68377;SDS011;55322;48.146;11.516;2023-07-28T06:38:13;5.90;;;2.10;;
68377;SDS011;55322;48.146;11.516;2023-07-28T06:40:38;5.40;;;1.77;;
68377;SDS011;55322;48.146;11.516;2023-07-28T06:43:04;7.13;;;2.17;;
68377;SDS011;55322;48.146;11.516;2023-07-28T06:45:29;5.90;;;2.00;;
68377;SDS011;55322;48.146;11.516;2023-07-28T06:47:54;6.82;;;1.92;;
68377;SDS011;55322;48.146;11.516;2023-07-28T06:50:20;5.60;;;1.87;;
68377;SDS011;55322;48.146;11.516;2023-07-28T06:52:45;6.00;;;1.80;;
68377;SDS011;55322;48.146;11.516;2023-07-28T06:55:11;6.05;;;1.98;;
68377;SDS011;55322;48.146;11.516;2023-07-28T06:57:37;7.40;;;2.00;;
68377;SDS011;55322;48.146;11.516;2023-07-28T07:00:02;6.50;;;1.90;;
68377;SDS011;55322;48.146;11.516;2023-07-28T07:05:49;4.93;;;1.83;;
68377;SDS011;55322;48.146;11.516;2023-07-28T07:08:15;5.40;;;1.90;;
68377;SDS011;55322;48.146;11.516;2023-07-28T07:10:40;7.03;;;2.00;;
68377;SDS011;55322;48.146;11.516;2023-07-28T07:13:12;6.50;;;2.15;;
68377;SDS011;55322;48.146;11.516;2023-07-28T07:15:37;6.00;;;1.70;;
68377;SDS011;55322;48.146;11.516;2023-07-28T07:18:03;5.60;;;2.00;;
68377;SDS011;55322;48.146;11.516;2023-07-28T07:20:28;5.10;;;1.53;;
68377;SDS011;55322;48.146;11.516;2023-07-28T07:22:53;5.70;;;2.00;;
68377;SDS011;55322;48.146;11.516;2023-07-28T07:25:19;8.27;;;2.00;;
68377;SDS011;55322;48.146;11.516;2023-07-28T07:27:44;5.73;;;1.67;;
68377;SDS011;55322;48.146;11.516;2023-07-28T07:30:10;8.05;;;2.00;;
68377;SDS011;55322;48.146;11.516;2023-07-28T07:32:35;5.63;;;2.00;;
68377;SDS011;55322;48.146;11.516;2023-07-28T07:35:01;7.53;;;1.83;;
68377;SDS011;55322;48.146;11.516;2023-07-28T07:37:26;5.63;;;2.07;;
68377;SDS011;55322;48.146;11.516;2023-07-28T07:39:52;5.33;;;1.63;;
68377;SDS011;55322;48.146;11.516;2023-07-28T07:42:17;5.63;;;1.77;;
68377;SDS011;55322;48.146;11.516;2023-07-28T07:44:42;4.90;;;1.80;;
68377;SDS011;55322;48.146;11.516;2023-07-28T07:47:11;5.33;;;1.80;;
68377;SDS011;55322;48.146;11.516;2023-07-28T07:49:39;5.43;;;1.70;;
68377;SDS011;55322;48.146;11.516;2023-07-28T07:52:06;6.50;;;2.00;;
68377;SDS011;55322;48.146;11.516;2023-07-28T07:54:32;6.75;;;1.67;;
68377;SDS011;55322;48.146;11.516;2023-07-28T07:56:57;6.33;;;1.93;;
68377;SDS011;55322;48.146;11.516;2023-07-28T07:59:22;6.07;;;1.60;;
68377;SDS011;55322;48.146;11.516;2023-07-28T08:01:51;6.38;;;1.70;;
68377;SDS011;55322;48.146;11.516;2023-07-28T08:04:16;7.07;;;1.80;;
68377;SDS011;55322;48.146;11.516;2023-07-28T08:06:41;5.50;;;1.63;;
68377;SDS011;55322;48.146;11.516;2023-07-28T08:09:07;6.85;;;2.00;;
68377;SDS011;55322;48.146;11.516;2023-07-28T08:11:32;5.77;;;1.80;;
68377;SDS011;55322;48.146;11.516;2023-07-28T08:13:58;6.20;;;1.80;;
68377;SDS011;55322;48.146;11.516;2023-07-28T08:16:23;5.83;;;1.40;;
68377;SDS011;55322;48.146;11.516;2023-07-28T08:18:48;6.30;;;1.60;;
68377;SDS011;55322;48.146;11.516;2023-07-28T08:21:14;6.37;;;1.83;;
68377;SDS011;55322;48.146;11.516;2023-07-28T08:23:40;5.20;;;1.90;;
68377;SDS011;55322;48.146;11.516;2023-07-28T08:26:05;7.77;;;1.83;;
68377;SDS011;55322;48.146;11.516;2023-07-28T08:28:30;5.27;;;1.87;;
68377;SDS011;55322;48.146;11.516;2023-07-28T08:30:57;6.70;;;1.58;;
68377;SDS011;55322;48.146;11.516;2023-07-28T08:33:24;6.07;;;1.67;;
68377;SDS011;55322;48.146;11.516;2023-07-28T08:35:49;8.13;;;1.80;;
68377;SDS011;55322;48.146;11.516;2023-07-28T08:38:14;5.60;;;1.77;;
68377;SDS011;55322;48.146;11.516;2023-07-28T08:40:40;7.27;;;2.00;;
68377;SDS011;55322;48.146;11.516;2023-07-28T08:43:05;7.03;;;1.90;;
68377;SDS011;55322;48.146;11.516;2023-07-28T08:45:31;5.50;;;1.90;;
68377;SDS011;55322;48.146;11.516;2023-07-28T08:47:56;7.63;;;2.35;;
68377;SDS011;55322;48.146;11.516;2023-07-28T08:50:22;5.90;;;1.60;;
68377;SDS011;55322;48.146;11.516;2023-07-28T08:52:48;5.70;;;2.00;;
68377;SDS011;55322;48.146;11.516;2023-07-28T08:55:15;5.10;;;1.93;;
68377;SDS011;55322;48.146;11.516;2023-07-28T08:57:41;5.50;;;1.98;;
68377;SDS011;55322;48.146;11.516;2023-07-28T09:00:10;5.90;;;1.73;;
68377;SDS011;55322;48.146;11.516;2023-07-28T09:02:38;5.30;;;1.70;;
68377;SDS011;55322;48.146;11.516;2023-07-28T09:05:04;6.03;;;1.90;;
68377;SDS011;55322;48.146;11.516;2023-07-28T09:07:33;5.43;;;1.77;;
68377;SDS011;55322;48.146;11.516;2023-07-28T09:10:00;5.87;;;1.70;;
68377;SDS011;55322;48.146;11.516;2023-07-28T09:12:26;6.50;;;2.00;;
68377;SDS011;55322;48.146;11.516;2023-07-28T09:14:55;5.27;;;1.70;;
68377;SDS011;55322;48.146;11.516;2023-07-28T09:17:21;5.60;;;2.10;;
68377;SDS011;55322;48.146;11.516;2023-07-28T09:19:50;5.40;;;1.90;;
68377;SDS011;55322;48.146;11.516;2023-07-28T09:22:20;5.80;;;1.90;;
68377;SDS011;55322;48.146;11.516;2023-07-28T09:24:47;7.20;;;2.00;;
68377;SDS011;55322;48.146;11.516;2023-07-28T09:27:19;5.63;;;1.60;;
68377;SDS011;55322;48.146;11.516;2023-07-28T09:29:50;5.45;;;1.52;;
68377;SDS011;55322;48.146;11.516;2023-07-28T09:32:16;5.30;;;1.70;;
68377;SDS011;55322;48.146;11.516;2023-07-28T09:35:04;5.37;;;1.70;;
68377;SDS011;55322;48.146;11.516;2023-07-28T09:37:37;5.72;;;1.70;;
68377;SDS011;55322;48.146;11.516;2023-07-28T09:40:04;6.65;;;1.80;;
68377;SDS011;55322;48.146;11.516;2023-07-28T09:42:36;5.63;;;2.10;;
68377;SDS011;55322;48.146;11.516;2023-07-28T09:45:02;6.37;;;1.80;;
68377;SDS011;55322;48.146;11.516;2023-07-28T09:47:29;5.45;;;1.83;;
68377;SDS011;55322;48.146;11.516;2023-07-28T09:49:55;5.40;;;1.88;;
68377;SDS011;55322;48.146;11.516;2023-07-28T09:52:23;5.00;;;1.90;;
68377;SDS011;55322;48.146;11.516;2023-07-28T09:54:51;5.82;;;1.90;;
68377;SDS011;55322;48.146;11.516;2023-07-28T09:57:20;5.68;;;2.00;;
68377;SDS011;55322;48.146;11.516;2023-07-28T09:59:47;5.57;;;1.92;;
68377;SDS011;55322;48.146;11.516;2023-07-28T10:02:13;6.87;;;1.97;;
68377;SDS011;55322;48.146;11.516;2023-07-28T10:04:38;6.95;;;2.03;;
68377;SDS011;55322;48.146;11.516;2023-07-28T10:07:04;8.30;;;1.80;;
68377;SDS011;55322;48.146;11.516;2023-07-28T10:09:31;5.20;;;1.80;;
68377;SDS011;55322;48.146;11.516;2023-07-28T10:11:58;5.53;;;2.00;;
68377;SDS011;55322;48.146;11.516;2023-07-28T10:16:54;5.90;;;2.08;;
68377;SDS011;55322;48.146;11.516;2023-07-28T10:19:20;5.20;;;1.93;;
68377;SDS011;55322;48.146;11.516;2023-07-28T10:21:45;7.47;;;2.20;;
68377;SDS011;55322;48.146;11.516;2023-07-28T10:24:11;7.83;;;1.90;;
68377;SDS011;55322;48.146;11.516;2023-07-28T10:26:39;5.53;;;1.63;;
68377;SDS011;55322;48.146;11.516;2023-07-28T10:29:12;5.68;;;1.98;;
68377;SDS011;55322;48.146;11.516;2023-07-28T10:31:55;5.70;;;1.88;;
68377;SDS011;55322;48.146;11.516;2023-07-28T10:34:21;5.78;;;2.00;;
68377;SDS011;55322;48.146;11.516;2023-07-28T10:36:49;6.03;;;1.80;;
68377;SDS011;55322;48.146;11.516;2023-07-28T10:39:24;6.83;;;1.90;;
68377;SDS011;55322;48.146;11.516;2023-07-28T10:42:00;5.18;;;1.75;;
68377;SDS011;55322;48.146;11.516;2023-07-28T10:44:29;5.30;;;1.70;;
68377;SDS011;55322;48.146;11.516;2023-07-28T10:46:55;6.10;;;1.67;;
68377;SDS011;55322;48.146;11.516;2023-07-28T10:49:20;5.57;;;1.85;;
68377;SDS011;55322;48.146;11.516;2023-07-28T10:51:45;6.30;;;2.23;;
68377;SDS011;55322;48.146;11.516;2023-07-28T10:54:11;6.57;;;2.37;;
68377;SDS011;55322;48.146;11.516;2023-07-28T10:56:40;5.55;;;1.90;;
68377;SDS011;55322;48.146;11.516;2023-07-28T10:59:06;6.43;;;1.90;;
68377;SDS011;55322;48.146;11.516;2023-07-28T11:01:35;6.03;;;1.90;;
68377;SDS011;55322;48.146;11.516;2023-07-28T11:06:34;6.55;;;1.90;;
68377;SDS011;55322;48.146;11.516;2023-07-28T11:08:59;6.03;;;2.00;;
68377;SDS011;55322;48.146;11.516;2023-07-28T11:11:25;5.67;;;2.03;;
68377;SDS011;55322;48.146;11.516;2023-07-28T11:13:51;6.37;;;2.00;;
68377;SDS011;55322;48.146;11.516;2023-07-28T11:16:16;6.60;;;2.27;;
68377;SDS011;55322;48.146;11.516;2023-07-28T11:18:41;6.80;;;2.13;;
68377;SDS011;55322;48.146;11.516;2023-07-28T11:21:07;5.77;;;2.10;;
68377;SDS011;55322;48.146;11.516;2023-07-28T11:23:32;5.53;;;2.10;;
68377;SDS011;55322;48.146;11.516;2023-07-28T11:25:58;6.05;;;2.08;;
68377;SDS011;55322;48.146;11.516;2023-07-28T11:28:23;5.93;;;1.90;;
68377;SDS011;55322;48.146;11.516;2023-07-28T11:30:50;6.05;;;1.90;;
68377;SDS011;55322;48.146;11.516;2023-07-28T11:33:15;5.83;;;2.07;;
68377;SDS011;55322;48.146;11.516;2023-07-28T11:35:43;5.40;;;1.80;;
68377;SDS011;55322;48.146;11.516;2023-07-28T11:38:09;5.35;;;1.88;;
68377;SDS011;55322;48.146;11.516;2023-07-28T11:40:35;5.93;;;2.10;;
68377;SDS011;55322;48.146;11.516;2023-07-28T11:43:01;5.00;;;1.87;;
68377;SDS011;55322;48.146;11.516;2023-07-28T11:45:27;5.80;;;1.80;;
68377;SDS011;55322;48.146;11.516;2023-07-28T11:48:01;6.50;;;1.90;;
68377;SDS011;55322;48.146;11.516;2023-07-28T11:50:29;5.22;;;1.85;;
68377;SDS011;55322;48.146;11.516;2023-07-28T11:52:58;5.83;;;2.00;;
68377;SDS011;55322;48.146;11.516;2023-07-28T11:55:24;5.40;;;1.88;;
68377;SDS011;55322;48.146;11.516;2023-07-28T11:57:50;5.63;;;2.03;;
68377;SDS011;55322;48.146;11.516;2023-07-28T12:00:17;5.45;;;1.70;;
68377;SDS011;55322;48.146;11.516;2023-07-28T12:02:42;6.07;;;2.10;;
68377;SDS011;55322;48.146;11.516;2023-07-28T12:05:14;6.78;;;1.90;;
68377;SDS011;55322;48.146;11.516;2023-07-28T12:07:41;6.32;;;1.83;;
68377;SDS011;55322;48.146;11.516;2023-07-28T12:10:06;5.03;;;1.80;;
68377;SDS011;55322;48.146;11.516;2023-07-28T12:12:40;5.13;;;2.00;;
68377;SDS011;55322;48.146;11.516;2023-07-28T12:23:15;5.60;;;1.50;;
68377;SDS011;55322;48.146;11.516;2023-07-28T12:25:43;5.38;;;1.80;;
68377;SDS011;55322;48.146;11.516;2023-07-28T12:28:09;5.78;;;1.88;;
68377;SDS011;55322;48.146;11.516;2023-07-28T12:30:35;5.38;;;1.83;;
68377;SDS011;55322;48.146;11.516;2023-07-28T12:33:01;5.20;;;1.73;;
68377;SDS011;55322;48.146;11.516;2023-07-28T12:35:30;4.70;;;1.53;;
68377;SDS011;55322;48.146;11.516;2023-07-28T12:37:58;5.30;;;1.73;;
68377;SDS011;55322;48.146;11.516;2023-07-28T12:40:28;6.22;;;2.00;;
68377;SDS011;55322;48.146;11.516;2023-07-28T12:42:54;5.30;;;1.90;;
68377;SDS011;55322;48.146;11.516;2023-07-28T12:45:20;5.43;;;2.10;;
68377;SDS011;55322;48.146;11.516;2023-07-28T12:47:46;4.93;;;1.80;;
68377;SDS011;55322;48.146;11.516;2023-07-28T12:50:11;6.10;;;1.83;;
68377;SDS011;55322;48.146;11.516;2023-07-28T12:52:37;5.40;;;1.90;;
68377;SDS011;55322;48.146;11.516;2023-07-28T12:55:02;5.37;;;2.07;;
68377;SDS011;55322;48.146;11.516;2023-07-28T12:57:28;5.43;;;2.00;;
68377;SDS011;55322;48.146;11.516;2023-07-28T12:59:53;6.03;;;1.80;;
68377;SDS011;55322;48.146;11.516;2023-07-28T13:02:18;5.60;;;1.83;;
68377;SDS011;55322;48.146;11.516;2023-07-28T13:04:44;6.18;;;1.92;;
68377;SDS011;55322;48.146;11.516;2023-07-28T13:07:09;8.13;;;2.10;;
68377;SDS011;55322;48.146;11.516;2023-07-28T13:09:34;5.43;;;2.00;;
68377;SDS011;55322;48.146;11.516;2023-07-28T13:12:00;5.23;;;2.03;;
68377;SDS011;55322;48.146;11.516;2023-07-28T13:14:25;5.27;;;2.00;;
68377;SDS011;55322;48.146;11.516;2023-07-28T13:16:50;6.20;;;2.00;;
68377;SDS011;55322;48.146;11.516;2023-07-28T13:19:16;5.47;;;2.10;;
68377;SDS011;55322;48.146;11.516;2023-07-28T13:21:41;4.93;;;1.73;;
68377;SDS011;55322;48.146;11.516;2023-07-28T13:24:07;6.50;;;2.20;;
68377;SDS011;55322;48.146;11.516;2023-07-28T13:26:32;5.20;;;2.00;;
68377;SDS011;55322;48.146;11.516;2023-07-28T13:28:57;5.33;;;2.17;;
68377;SDS011;55322;48.146;11.516;2023-07-28T13:31:26;5.57;;;2.03;;
68377;SDS011;55322;48.146;11.516;2023-07-28T13:33:51;6.03;;;2.13;;
68377;SDS011;55322;48.146;11.516;2023-07-28T13:36:17;6.00;;;1.90;;
68377;SDS011;55322;48.146;11.516;2023-07-28T13:38:42;6.68;;;1.88;;
68377;SDS011;55322;48.146;11.516;2023-07-28T13:41:07;5.50;;;2.10;;
68377;SDS011;55322;48.146;11.516;2023-07-28T13:43:33;5.80;;;2.00;;
68377;SDS011;55322;48.146;11.516;2023-07-28T13:46:00;5.40;;;2.00;;
68377;SDS011;55322;48.146;11.516;2023-07-28T13:48:26;5.40;;;1.93;;
68377;SDS011;55322;48.146;11.516;2023-07-28T13:50:51;7.93;;;2.43;;
68377;SDS011;55322;48.146;11.516;2023-07-28T13:53:17;5.80;;;1.97;;
68377;SDS011;55322;48.146;11.516;2023-07-28T13:55:42;6.77;;;1.90;;
68377;SDS011;55322;48.146;11.516;2023-07-28T13:58:08;5.95;;;1.92;;
68377;SDS011;55322;48.146;11.516;2023-07-28T14:00:33;5.30;;;1.80;;
68377;SDS011;55322;48.146;11.516;2023-07-28T14:02:59;5.87;;;2.10;;
68377;SDS011;55322;48.146;11.516;2023-07-28T14:05:24;5.43;;;2.20;;
68377;SDS011;55322;48.146;11.516;2023-07-28T14:07:49;5.82;;;2.00;;
68377;SDS011;55322;48.146;11.516;2023-07-28T14:10:14;5.13;;;1.93;;
68377;SDS011;55322;48.146;11.516;2023-07-28T14:12:40;6.37;;;1.90;;
68377;SDS011;55322;48.146;11.516;2023-07-28T14:15:06;5.33;;;1.90;;
68377;SDS011;55322;48.146;11.516;2023-07-28T14:17:33;5.68;;;2.10;;
68377;SDS011;55322;48.146;11.516;2023-07-28T14:19:58;6.20;;;2.10;;
68377;SDS011;55322;48.146;11.516;2023-07-28T14:22:23;5.77;;;2.07;;
68377;SDS011;55322;48.146;11.516;2023-07-28T14:24:49;5.70;;;2.03;;
68377;SDS011;55322;48.146;11.516;2023-07-28T14:27:14;5.70;;;2.00;;
68377;SDS011;55322;48.146;11.516;2023-07-28T14:29:39;6.53;;;2.20;;
68377;SDS011;55322;48.146;11.516;2023-07-28T14:32:05;5.80;;;2.30;;
68377;SDS011;55322;48.146;11.516;2023-07-28T14:34:30;5.85;;;2.10;;
68377;SDS011;55322;48.146;11.516;2023-07-28T14:36:55;6.23;;;2.50;;
68377;SDS011;55322;48.146;11.516;2023-07-28T14:39:21;6.73;;;2.43;;
68377;SDS011;55322;48.146;11.516;2023-07-28T14:41:46;6.40;;;2.57;;
68377;SDS011;55322;48.146;11.516;2023-07-28T14:44:11;6.50;;;2.40;;
68377;SDS011;55322;48.146;11.516;2023-07-28T14:46:37;8.27;;;2.23;;